Aviation Digital Data Service (ADDS)

Output produced by TAFs form (2154 UTC 19 February 2018)
found at http://www.aviationweather.gov/adds/tafs/
 
EGPK 192120Z 30013KT 5000 -RA FEW005 SCT008 BKN015 08/07 Q1019
TAF EGPK 191700Z 1918/2018 VRB05KT 9999 SCT015 
     TEMPO 1918/2002 7000 -RA BKN014 
     PROB30 
     TEMPO 1918/2001 4000 RA BKN007 
     BECMG 2000/2003 31010KT